Home   Weather   USA   Sperryville   Past weeks
Flag for USA

Past Weather in Sperryville, Virginia, USA — Yesterday and Last 2 Weeks

Currently: 46 °F. Clear. (Weather station: warren County Airport, USA). See more current weather

Past Weather in Sperryville — Graph

°F

Sperryville Temperature Yesterday

Maximum temperature yesterday: 59 °F (at 2:35 pm)
Minimum temperature yesterday: 37 °F (at 6:55 am)
Average temperature yesterday: 50 °F

High & Low Weather Summary for the Past Weeks

 TemperatureHumidityPressure
High81 °F (Apr 7, 2:15 pm)100% (Apr 9, 12:55 am)30.16 "Hg (Apr 9, 12:55 am)
Low37 °F (Apr 18, 6:55 am)20% (Apr 4, 4:15 pm)29.42 "Hg (Apr 11, 4:55 pm)
Average57 °F64%29.90 "Hg
* Reported Apr 4 5:15 am — Apr 19 5:15 am, Sperryville. Weather by CustomWeather, © 2021

Note: Actual official high and low records may vary slightly from our data, if they occured in-between our weather recording intervals... More about our weather records

Sperryville Weather History for the Previous 24 Hours

Scroll right to see more
 ConditionsComfort  
Time TempWeatherWind HumidityBarometerVisibility
5:15 am
Mon, Apr 19
45 °FPassing clouds.3 mph87%29.85 "Hg10 mi
4:35 am45 °FOvercast.3 mph87%29.86 "Hg10 mi
4:15 am45 °FPassing clouds.No wind87%29.85 "Hg10 mi
3:55 am45 °FPassing clouds.5 mph87%29.85 "Hg10 mi
3:35 am45 °FOvercast.3 mph87%29.86 "Hg10 mi
3:15 am46 °FOvercast.No wind82%29.86 "Hg10 mi
2:55 am48 °FOvercast.5 mph76%29.87 "Hg10 mi
2:35 am48 °FOvercast.No wind76%29.87 "Hg10 mi
2:15 am46 °FOvercast.3 mph87%29.88 "Hg10 mi
1:55 am46 °FOvercast.3 mph87%29.88 "Hg10 mi
1:35 am48 °FOvercast.5 mph82%29.89 "Hg10 mi
1:15 am48 °FOvercast.5 mph82%29.89 "Hg10 mi
12:55 am46 °FOvercast.3 mph87%29.89 "Hg10 mi
12:35 am48 °FPartly cloudy.No wind76%29.89 "Hg10 mi
12:15 am48 °FPassing clouds.No wind76%29.89 "Hg10 mi
11:55 pm
Sun, Apr 18
50 °FOvercast.5 mph71%29.89 "Hg10 mi
11:35 pm52 °FOvercast.3 mph67%29.89 "Hg10 mi
11:15 pm50 °FMostly cloudy.No wind71%29.89 "Hg10 mi
10:55 pm50 °FOvercast.3 mph71%29.89 "Hg10 mi
10:35 pm50 °FOvercast.3 mph71%29.89 "Hg10 mi
10:15 pm52 °FOvercast.3 mph67%29.88 "Hg10 mi
9:55 pm52 °FOvercast.3 mph67%29.88 "Hg10 mi
9:35 pm52 °FOvercast.No wind67%29.88 "Hg10 mi
9:15 pm52 °FOvercast.No wind67%29.88 "Hg10 mi
8:55 pm54 °FOvercast.No wind63%29.87 "Hg10 mi
8:35 pm54 °FOvercast.No wind63%29.87 "Hg10 mi
8:15 pm55 °FOvercast.No wind55%29.87 "Hg10 mi
7:55 pm55 °FMostly cloudy.No wind55%29.86 "Hg10 mi
7:35 pm55 °FScattered clouds.No wind55%29.86 "Hg10 mi
7:15 pm55 °FScattered clouds.No wind55%29.86 "Hg10 mi
6:55 pm59 °FScattered clouds.No wind48%29.86 "Hg10 mi
6:35 pm59 °FPartly sunny.No wind45%29.86 "Hg10 mi
6:15 pm59 °FOvercast.3 mph45%29.87 "Hg10 mi
5:55 pm59 °FMore clouds than sun.3 mph51%29.86 "Hg10 mi
5:35 pm57 °FMore clouds than sun.3 mph59%29.86 "Hg10 mi
5:15 pm55 °FOvercast.No wind59%29.87 "Hg10 mi
4:35 pm55 °FMostly cloudy.No wind59%29.87 "Hg10 mi
3:55 pm59 °FMostly cloudy.No wind48%29.86 "Hg10 mi
3:35 pm59 °FMostly cloudy.No wind45%29.86 "Hg10 mi
3:15 pm59 °FMostly cloudy.No wind51%29.86 "Hg10 mi
2:55 pm59 °FOvercast.No wind51%29.86 "Hg10 mi
2:35 pm59 °FOvercast.No wind51%29.86 "Hg10 mi
2:15 pm57 °FMore clouds than sun.No wind51%29.87 "Hg10 mi
1:55 pm57 °FMostly cloudy.3 mph51%29.87 "Hg10 mi
1:35 pm57 °FCloudy.No wind51%29.87 "Hg10 mi
1:15 pm57 °FMore clouds than sun.3 mph55%29.88 "Hg10 mi
12:35 pm55 °FOvercast.No wind55%29.89 "Hg10 mi
12:15 pm55 °FMostly cloudy.5 mph55%29.89 "Hg10 mi
11:55 am55 °FPartly sunny.No wind59%29.90 "Hg10 mi
11:35 am55 °FScattered clouds.5 mph59%29.90 "Hg10 mi
11:15 am55 °FSunny.6 mph59%29.91 "Hg10 mi
10:35 am54 °FScattered clouds.8 mph63%29.92 "Hg10 mi
9:55 am54 °FScattered clouds.No wind67%29.92 "Hg10 mi
9:15 am50 °FPartly sunny.No wind71%29.92 "Hg10 mi
8:55 am48 °FSunny.No wind76%29.93 "Hg10 mi
8:35 am46 °FSunny.No wind82%29.92 "Hg10 mi
8:15 am46 °FSunny.No wind87%29.92 "Hg10 mi
7:55 am43 °FSunny.No wind93%29.91 "Hg10 mi
7:35 am41 °FScattered clouds.No wind100%29.91 "Hg10 mi
7:15 am39 °FScattered clouds.No wind100%29.90 "Hg10 mi
6:55 am37 °FSunny.No wind100%29.89 "Hg10 mi
6:35 am39 °FPartly sunny.No wind100%29.89 "Hg10 mi
6:15 am39 °FMostly cloudy.No wind100%29.89 "Hg10 mi
Weather by CustomWeather, © 2021

See weather overview